createdAt,value
2019-05-03T00:02:05.211Z,7.37
2019-05-03T00:04:08.563Z,6.30
2019-05-03T00:06:12.059Z,11.93
2019-05-03T00:08:13.743Z,8.97
2019-05-03T00:10:16.302Z,7.73
2019-05-03T00:12:18.856Z,9.73
2019-05-03T00:14:21.774Z,9.27
2019-05-03T00:16:24.014Z,7.50
2019-05-03T00:18:26.610Z,7.50
2019-05-03T00:20:29.388Z,7.50
2019-05-03T00:22:32.331Z,6.97
2019-05-03T00:24:34.491Z,4.43
2019-05-03T00:26:37.129Z,6.73
2019-05-03T00:28:39.784Z,6.40
2019-05-03T00:30:42.398Z,6.20
2019-05-03T00:32:44.904Z,9.37
2019-05-03T00:34:47.963Z,5.50
2019-05-03T00:36:53.802Z,8.13
2019-05-03T00:38:56.474Z,8.50
2019-05-03T00:40:59.138Z,7.20
2019-05-03T00:43:02.301Z,6.67
2019-05-03T00:45:06.141Z,5.53
2019-05-03T00:47:08.682Z,7.13
2019-05-03T00:49:12.000Z,7.07
2019-05-03T00:51:14.715Z,6.77
2019-05-03T00:53:17.327Z,14.97
2019-05-03T00:55:21.889Z,6.70
2019-05-03T00:57:22.819Z,6.93
2019-05-03T00:59:25.042Z,6.33
2019-05-03T01:01:28.536Z,6.40
2019-05-03T01:03:32.601Z,7.30
2019-05-03T01:05:33.697Z,5.00
2019-05-03T01:07:36.261Z,7.43
2019-05-03T01:09:38.831Z,7.80
2019-05-03T01:11:41.824Z,4.50
2019-05-03T01:13:43.984Z,6.37
2019-05-03T01:15:52.456Z,8.10
2019-05-03T01:17:55.007Z,7.83
2019-05-03T01:19:58.492Z,6.53
2019-05-03T01:22:01.950Z,6.90
2019-05-03T01:24:03.603Z,6.47
2019-05-03T01:26:06.214Z,8.53
2019-05-03T01:28:08.750Z,5.90
2019-05-03T01:30:11.937Z,6.73
2019-05-03T01:32:13.998Z,6.73
2019-05-03T01:34:17.403Z,6.80
2019-05-03T01:36:19.944Z,4.57
2019-05-03T01:38:22.763Z,9.23
2019-05-03T01:40:25.182Z,9.07
2019-05-03T01:42:28.148Z,8.63
2019-05-03T01:44:32.671Z,7.17
2019-05-03T01:46:34.362Z,7.57
2019-05-03T01:48:52.190Z,6.53
2019-05-03T01:50:55.274Z,7.70
2019-05-03T01:52:57.826Z,8.13
2019-05-03T01:55:00.430Z,6.23
2019-05-03T01:57:03.110Z,8.43
2019-05-03T01:59:05.920Z,8.03
2019-05-03T02:01:10.287Z,14.93
2019-05-03T02:03:27.861Z,13.37
2019-05-03T02:05:36.988Z,9.80
2019-05-03T02:07:39.510Z,9.63
2019-05-03T02:09:42.103Z,14.10
2019-05-03T02:11:45.030Z,10.33
2019-05-03T02:13:48.787Z,6.87
2019-05-03T02:15:52.714Z,8.83
2019-05-03T02:17:53.911Z,19.83
2019-05-03T02:19:56.719Z,9.10
2019-05-03T02:21:59.255Z,13.90
2019-05-03T02:24:02.592Z,5.90
2019-05-03T02:26:04.511Z,6.87
2019-05-03T02:28:07.109Z,7.40
2019-05-03T02:30:09.644Z,8.20
2019-05-03T02:32:13.326Z,8.97
2019-05-03T02:34:14.923Z,9.47
2019-05-03T02:36:17.495Z,8.40
2019-05-03T02:38:20.236Z,6.57
2019-05-03T02:40:24.616Z,7.33
2019-05-03T02:42:26.481Z,8.03
2019-05-03T02:44:28.090Z,8.00
2019-05-03T02:46:36.424Z,7.30
2019-05-03T02:48:45.760Z,5.47
2019-05-03T02:50:45.980Z,8.53
2019-05-03T02:52:48.548Z,6.70
2019-05-03T02:54:51.738Z,8.90
2019-05-03T02:56:55.967Z,10.15
2019-05-03T02:58:56.989Z,8.43
2019-05-03T03:01:00.305Z,8.27
2019-05-03T03:03:05.517Z,6.80
2019-05-03T03:05:06.198Z,10.57
2019-05-03T03:07:08.904Z,9.93
2019-05-03T03:09:11.483Z,6.47
2019-05-03T03:11:15.547Z,6.17
2019-05-03T03:13:16.729Z,7.10
2019-05-03T03:15:19.398Z,7.43
2019-05-03T03:17:21.942Z,7.20
2019-05-03T03:19:26.166Z,5.40
2019-05-03T03:21:27.112Z,5.73
2019-05-03T03:23:29.910Z,9.73
2019-05-03T03:25:32.466Z,10.43
2019-05-03T03:27:36.135Z,7.93
2019-05-03T03:29:37.611Z,7.73
2019-05-03T03:31:59.687Z,6.13
2019-05-03T03:34:02.323Z,9.33
2019-05-03T03:36:31.814Z,7.17
2019-05-03T03:38:07.457Z,9.40
2019-05-03T03:40:10.143Z,7.27
2019-05-03T03:42:12.759Z,6.90
2019-05-03T03:44:15.421Z,9.93
2019-05-03T03:46:17.866Z,6.23
2019-05-03T03:48:20.423Z,8.33
2019-05-03T03:50:25.707Z,6.30
2019-05-03T03:52:25.672Z,6.93
2019-05-03T03:54:28.156Z,7.70
2019-05-03T03:56:31.553Z,11.17
2019-05-03T03:58:35.882Z,5.87
2019-05-03T04:00:37.699Z,7.77
2019-05-03T04:02:40.345Z,7.40
2019-05-03T04:04:45.039Z,10.13
2019-05-03T04:06:46.588Z,7.40
2019-05-03T04:08:48.304Z,9.50
2019-05-03T04:10:51.019Z,6.40
2019-05-03T04:12:55.751Z,7.73
2019-05-03T04:15:11.782Z,10.03
2019-05-03T04:17:26.459Z,5.60
2019-05-03T04:19:29.746Z,7.00
2019-05-03T04:21:35.743Z,7.87
2019-05-03T04:23:37.173Z,8.10
2019-05-03T04:25:39.711Z,5.13
2019-05-03T04:27:42.312Z,5.90
2019-05-03T04:29:45.466Z,7.87
2019-05-03T04:31:48.277Z,6.70
2019-05-03T04:33:50.861Z,8.20
2019-05-03T04:35:55.717Z,7.73
2019-05-03T04:37:56.266Z,7.57
2019-05-03T04:39:59.563Z,7.17
2019-05-03T04:42:02.187Z,9.03
2019-05-03T04:44:06.265Z,6.57
2019-05-03T04:46:07.359Z,7.97
2019-05-03T04:48:10.746Z,8.33
2019-05-03T04:50:16.065Z,11.00
2019-05-03T04:52:16.473Z,6.27
2019-05-03T04:54:36.988Z,8.03
2019-05-03T04:56:39.531Z,12.37
2019-05-03T04:58:42.152Z,10.23
2019-05-03T05:00:46.463Z,6.07
2019-05-03T05:02:47.368Z,9.60
2019-05-03T05:04:49.910Z,5.87
2019-05-03T05:06:52.532Z,7.27
2019-05-03T05:08:55.283Z,9.07
2019-05-03T05:10:57.778Z,8.27
2019-05-03T05:13:00.335Z,9.67
2019-05-03T05:15:05.132Z,8.80
2019-05-03T05:17:06.353Z,9.80
2019-05-03T05:19:09.155Z,8.30
2019-05-03T05:21:22.527Z,6.17
2019-05-03T05:23:25.244Z,8.33
2019-05-03T05:25:30.608Z,6.60
2019-05-03T05:27:49.486Z,7.87
2019-05-03T05:29:50.614Z,6.67
2019-05-03T05:31:54.777Z,10.60
2019-05-03T05:33:55.763Z,6.47
2019-05-03T05:35:58.940Z,12.70
2019-05-03T05:38:01.614Z,6.57
2019-05-03T05:40:05.291Z,6.93
2019-05-03T05:42:07.691Z,5.20
2019-05-03T05:44:10.264Z,7.30
2019-05-03T05:46:14.536Z,7.23
2019-05-03T05:48:15.444Z,8.80
2019-05-03T05:50:21.751Z,9.23
2019-05-03T05:52:24.635Z,8.67
2019-05-03T05:54:28.450Z,8.50
2019-05-03T05:56:46.779Z,7.73
2019-05-03T05:58:50.192Z,9.00
2019-05-03T06:00:57.734Z,10.47
2019-05-03T06:03:00.458Z,9.20
2019-05-03T06:05:04.747Z,11.50
2019-05-03T06:07:11.326Z,9.00
2019-05-03T06:09:16.886Z,6.50
2019-05-03T06:11:19.438Z,9.37
2019-05-03T06:13:23.192Z,8.07
2019-05-03T06:15:45.227Z,8.20
2019-05-03T06:17:49.215Z,8.60
2019-05-03T06:19:57.107Z,11.13
2019-05-03T06:22:05.089Z,7.90
2019-05-03T06:24:09.754Z,9.77
2019-05-03T06:26:17.974Z,10.67
2019-05-03T06:28:21.307Z,8.33
2019-05-03T06:30:24.910Z,7.13
2019-05-03T06:32:28.090Z,8.47
2019-05-03T06:34:30.746Z,7.70
2019-05-03T06:36:35.316Z,8.57
2019-05-03T06:38:35.923Z,13.63
2019-05-03T06:40:38.474Z,11.03
2019-05-03T06:42:51.544Z,13.60
2019-05-03T06:44:45.542Z,10.80
2019-05-03T06:46:47.728Z,10.80
2019-05-03T06:48:51.233Z,11.17
2019-05-03T06:50:55.687Z,10.60
2019-05-03T06:52:59.770Z,9.60
2019-05-03T06:55:00.475Z,10.33
2019-05-03T06:57:07.839Z,11.13
2019-05-03T06:59:05.218Z,8.07
2019-05-03T07:01:11.372Z,7.60
2019-05-03T07:03:18.590Z,5.30
2019-05-03T07:05:25.143Z,6.00
2019-05-03T07:07:29.375Z,8.23
2019-05-03T07:09:35.386Z,12.70
2019-05-03T07:11:37.266Z,11.80
2019-05-03T07:13:40.095Z,12.63
2019-05-03T07:15:42.634Z,12.17
2019-05-03T07:17:45.336Z,12.07
2019-05-03T07:19:47.894Z,9.97
2019-05-03T07:21:50.439Z,9.60
2019-05-03T07:23:55.031Z,9.33
2019-05-03T07:25:56.469Z,13.60
2019-05-03T07:27:59.979Z,8.40
2019-05-03T07:30:04.718Z,13.17
2019-05-03T07:32:05.871Z,13.30
2019-05-03T07:34:08.450Z,9.80
2019-05-03T07:36:11.579Z,12.43
2019-05-03T07:38:15.547Z,10.60
2019-05-03T07:40:17.502Z,9.67
2019-05-03T07:42:20.790Z,14.17
2019-05-03T07:44:25.417Z,8.80
2019-05-03T07:46:26.151Z,10.00
2019-05-03T07:48:28.708Z,8.57
2019-05-03T07:50:33.186Z,13.40
2019-05-03T07:52:34.823Z,10.00
2019-05-03T07:54:36.855Z,11.63
2019-05-03T07:56:40.349Z,10.13
2019-05-03T07:58:44.948Z,17.00
2019-05-03T08:00:45.479Z,10.33
2019-05-03T08:02:48.063Z,19.60
2019-05-03T08:04:50.614Z,12.67
2019-05-03T08:06:54.909Z,10.50
2019-05-03T08:08:56.348Z,13.10
2019-05-03T08:10:59.780Z,10.73
2019-05-03T08:13:04.525Z,16.50
2019-05-03T08:15:05.361Z,13.40
2019-05-03T08:17:07.506Z,9.73
2019-05-03T08:19:10.080Z,11.47
2019-05-03T08:21:14.561Z,8.10
2019-05-03T08:23:26.806Z,10.13
2019-05-03T08:25:17.803Z,11.80
2019-05-03T08:27:20.358Z,9.43
2019-05-03T08:29:24.744Z,6.47
2019-05-03T08:31:26.628Z,8.27
2019-05-03T08:33:40.728Z,9.80
2019-05-03T08:35:44.788Z,7.87
2019-05-03T08:37:54.529Z,10.00
2019-05-03T08:39:55.236Z,7.70
2019-05-03T08:41:58.458Z,10.33
2019-05-03T08:44:02.054Z,8.70
2019-05-03T08:46:04.743Z,7.73
2019-05-03T08:48:07.175Z,8.70
2019-05-03T08:50:09.727Z,7.07
2019-05-03T08:52:15.538Z,6.37
2019-05-03T08:54:15.848Z,7.60
2019-05-03T08:56:18.421Z,11.67
2019-05-03T08:58:21.002Z,10.73
2019-05-03T09:00:24.902Z,8.10
2019-05-03T09:02:26.807Z,5.83
2019-05-03T09:04:37.470Z,5.13
2019-05-03T09:06:32.687Z,7.13
2019-05-03T09:08:35.519Z,8.43
2019-05-03T09:10:39.309Z,8.50
2019-05-03T09:12:47.475Z,7.63
2019-05-03T09:14:50.615Z,8.43
2019-05-03T09:16:55.413Z,9.13
2019-05-03T09:18:55.859Z,6.07
2019-05-03T09:20:58.399Z,6.20
2019-05-03T09:23:00.984Z,5.13
2019-05-03T09:25:04.973Z,7.57
2019-05-03T09:27:06.139Z,5.60
2019-05-03T09:29:08.889Z,5.53
2019-05-03T09:31:11.462Z,5.60
2019-05-03T09:33:15.399Z,8.37
2019-05-03T09:35:29.822Z,6.23
2019-05-03T09:37:19.927Z,4.00
2019-05-03T09:39:24.419Z,5.53
2019-05-03T09:41:25.803Z,6.83
2019-05-03T09:43:28.450Z,5.57
2019-05-03T09:45:31.119Z,5.97
2019-05-03T09:47:35.372Z,3.90
2019-05-03T09:49:36.597Z,5.03
2019-05-03T09:51:39.175Z,2.90
2019-05-03T09:53:47.526Z,3.30
2019-05-03T09:55:50.848Z,3.27
2019-05-03T09:57:55.536Z,5.93
2019-05-03T09:59:59.961Z,7.20
2019-05-03T10:01:59.399Z,2.23
2019-05-03T10:04:01.975Z,3.77
2019-05-03T10:06:04.544Z,3.63
2019-05-03T10:08:07.761Z,3.77
2019-05-03T10:10:10.299Z,3.43
2019-05-03T10:12:12.967Z,3.50
2019-05-03T10:14:15.721Z,3.83
2019-05-03T10:16:18.119Z,9.43
2019-05-03T10:18:20.836Z,5.90
2019-05-03T10:20:25.207Z,3.00
2019-05-03T10:22:26.008Z,8.90
2019-05-03T10:24:29.866Z,3.20
2019-05-03T10:26:32.425Z,4.53
2019-05-03T10:28:35.080Z,8.17
2019-05-03T10:30:37.698Z,4.80
2019-05-03T10:32:40.866Z,3.53
2019-05-03T10:34:43.419Z,4.40
2019-05-03T10:36:46.265Z,3.00
2019-05-03T10:38:48.800Z,5.20
2019-05-03T10:40:51.374Z,2.67
2019-05-03T10:42:55.254Z,3.63
2019-05-03T10:44:57.399Z,3.33
2019-05-03T10:46:59.963Z,8.33
2019-05-03T10:49:05.621Z,5.23
2019-05-03T10:51:07.497Z,4.40
2019-05-03T10:53:10.745Z,2.50
2019-05-03T10:55:15.963Z,1.70
2019-05-03T10:57:20.912Z,2.40
2019-05-03T10:59:25.029Z,2.40
2019-05-03T11:01:45.691Z,4.30
2019-05-03T11:03:48.226Z,2.23
2019-05-03T11:05:51.057Z,3.07
2019-05-03T11:07:55.536Z,2.47
2019-05-03T11:09:56.611Z,2.90
2019-05-03T11:11:59.142Z,2.60
2019-05-03T11:14:01.838Z,7.20
2019-05-03T11:16:05.579Z,3.40
2019-05-03T11:18:07.003Z,2.30
2019-05-03T11:20:09.596Z,2.60
2019-05-03T11:22:14.655Z,3.83
2019-05-03T11:24:17.771Z,2.73
2019-05-03T11:26:20.346Z,2.67
2019-05-03T11:28:24.945Z,3.43
2019-05-03T11:30:26.398Z,2.80
2019-05-03T11:32:36.774Z,2.20
2019-05-03T11:34:45.059Z,2.20
2019-05-03T11:36:49.579Z,2.10
2019-05-03T11:38:52.321Z,4.87
2019-05-03T11:40:55.993Z,1.90
2019-05-03T11:42:57.524Z,3.97
2019-05-03T11:45:00.112Z,2.40
2019-05-03T11:47:02.655Z,2.80
2019-05-03T11:49:05.673Z,2.27
2019-05-03T11:51:08.647Z,6.40
2019-05-03T11:53:11.186Z,2.47
2019-05-03T11:55:15.994Z,5.43
2019-05-03T11:57:23.991Z,2.83
2019-05-03T11:59:26.465Z,2.30
2019-05-03T12:01:28.043Z,2.43
2019-05-03T12:03:35.531Z,4.03
2019-05-03T12:05:37.295Z,2.53
2019-05-03T12:07:40.301Z,6.67
2019-05-03T12:09:42.591Z,4.20
2019-05-03T12:11:45.131Z,3.70
2019-05-03T12:13:47.745Z,3.80
2019-05-03T12:15:50.295Z,2.43
2019-05-03T12:17:57.913Z,2.57
2019-05-03T12:19:57.732Z,1.90
2019-05-03T12:21:59.685Z,2.47
2019-05-03T12:24:02.258Z,2.70
2019-05-03T12:26:09.446Z,1.80
2019-05-03T12:28:06.854Z,3.60
2019-05-03T12:30:09.408Z,1.60
2019-05-03T12:32:12.106Z,2.07
2019-05-03T12:34:15.970Z,5.60
2019-05-03T12:36:17.462Z,2.03
2019-05-03T12:38:20.019Z,2.87
2019-05-03T12:40:22.699Z,3.50
2019-05-03T12:42:25.635Z,3.67
2019-05-03T12:44:27.929Z,3.87
2019-05-03T12:46:30.504Z,3.53
2019-05-03T12:48:35.268Z,1.97
2019-05-03T12:50:35.663Z,4.50
2019-05-03T12:52:49.639Z,2.10
2019-05-03T12:54:41.075Z,3.60
2019-05-03T12:56:45.357Z,5.33
2019-05-03T12:58:51.914Z,4.17
2019-05-03T13:00:57.271Z,2.10
2019-05-03T13:03:00.592Z,2.97
2019-05-03T13:05:04.870Z,2.13
2019-05-03T13:07:08.405Z,3.10
2019-05-03T13:09:10.953Z,7.00
2019-05-03T13:11:14.406Z,8.90
2019-05-03T13:13:16.998Z,5.90
2019-05-03T13:15:19.564Z,2.20
2019-05-03T13:17:28.135Z,10.03
2019-05-03T13:19:31.470Z,2.00
2019-05-03T13:21:35.486Z,9.13
2019-05-03T13:23:36.616Z,9.33
2019-05-03T13:25:39.266Z,3.07
2019-05-03T13:27:41.850Z,3.83
2019-05-03T13:29:45.314Z,3.13
2019-05-03T13:31:58.346Z,6.50
2019-05-03T13:33:49.578Z,2.50
2019-05-03T13:35:52.255Z,2.57
2019-05-03T13:37:55.721Z,4.20
2019-05-03T13:39:58.047Z,2.10
2019-05-03T13:42:00.816Z,2.10
2019-05-03T13:44:05.138Z,2.73
2019-05-03T13:46:05.963Z,2.57
2019-05-03T13:48:10.087Z,2.20
2019-05-03T13:50:15.168Z,1.80
2019-05-03T13:52:15.987Z,3.63
2019-05-03T13:54:18.555Z,9.70
2019-05-03T13:56:21.404Z,2.37
2019-05-03T13:58:26.411Z,2.23
2019-05-03T14:00:27.534Z,1.60
2019-05-03T14:02:30.240Z,7.67
2019-05-03T14:04:35.759Z,1.70
2019-05-03T14:06:36.615Z,1.60
2019-05-03T14:08:39.708Z,1.57
2019-05-03T14:10:45.564Z,2.10
2019-05-03T14:12:47.175Z,2.97
2019-05-03T14:14:51.719Z,4.63
2019-05-03T14:16:54.768Z,10.13
2019-05-03T14:18:56.911Z,2.40
2019-05-03T14:21:02.188Z,1.60
2019-05-03T14:23:05.207Z,4.30
2019-05-03T14:25:08.655Z,2.47
2019-05-03T14:27:11.210Z,1.50
2019-05-03T14:29:14.964Z,2.30
2019-05-03T14:31:16.779Z,1.63
2019-05-03T14:33:19.331Z,1.43
2019-05-03T14:35:22.308Z,1.90
2019-05-03T14:37:25.022Z,10.43
2019-05-03T14:39:27.563Z,2.20
2019-05-03T14:41:30.119Z,2.63
2019-05-03T14:43:35.387Z,3.80
2019-05-03T14:45:36.647Z,1.90
2019-05-03T14:47:39.191Z,1.57
2019-05-03T14:49:41.802Z,2.93
2019-05-03T14:51:45.541Z,2.93
2019-05-03T14:53:46.923Z,3.03
2019-05-03T14:55:49.486Z,1.80
2019-05-03T14:58:06.968Z,2.20
2019-05-03T15:00:11.014Z,2.00
2019-05-03T15:02:19.394Z,3.47
2019-05-03T15:04:25.424Z,1.83
2019-05-03T15:06:25.884Z,1.43
2019-05-03T15:08:29.203Z,3.80
2019-05-03T15:10:31.758Z,1.83
2019-05-03T15:12:35.939Z,2.50
2019-05-03T15:14:37.860Z,1.97
2019-05-03T15:16:41.158Z,2.50
2019-05-03T15:18:45.392Z,1.33
2019-05-03T15:20:46.810Z,1.70
2019-05-03T15:22:49.387Z,1.43
2019-05-03T15:24:51.947Z,2.53
2019-05-03T15:26:55.372Z,2.10
2019-05-03T15:28:58.444Z,1.43
2019-05-03T15:31:01.008Z,1.17
2019-05-03T15:33:04.947Z,1.30
2019-05-03T15:35:06.119Z,1.30
2019-05-03T15:37:09.387Z,3.97
2019-05-03T15:39:13.051Z,2.10
2019-05-03T15:41:16.438Z,2.60
2019-05-03T15:43:28.452Z,1.90
2019-05-03T15:45:30.305Z,1.20
2019-05-03T15:47:33.713Z,2.30
2019-05-03T15:49:37.767Z,1.30
2019-05-03T15:51:40.376Z,2.80
2019-05-03T15:53:44.400Z,1.77
2019-05-03T15:55:45.610Z,1.30
2019-05-03T15:57:48.235Z,1.10
2019-05-03T15:59:50.807Z,2.20
2019-05-03T16:01:55.351Z,2.13
2019-05-03T16:03:56.827Z,2.70
2019-05-03T16:05:59.437Z,1.13
2019-05-03T16:08:01.969Z,3.03
2019-05-03T16:10:04.696Z,1.70
2019-05-03T16:12:07.123Z,3.80
2019-05-03T16:14:10.504Z,1.23
2019-05-03T16:16:15.004Z,3.20
2019-05-03T16:18:15.762Z,2.70
2019-05-03T16:20:18.310Z,5.93
2019-05-03T16:22:20.906Z,2.87
2019-05-03T16:24:24.954Z,4.03
2019-05-03T16:26:28.653Z,1.17
2019-05-03T16:28:36.935Z,1.90
2019-05-03T16:30:42.467Z,1.87
2019-05-03T16:32:45.015Z,0.90
2019-05-03T16:34:47.652Z,0.90
2019-05-03T16:36:50.191Z,1.37
2019-05-03T16:38:52.735Z,1.77
2019-05-03T16:40:55.696Z,2.00
2019-05-03T16:42:59.175Z,2.43
2019-05-03T16:45:01.824Z,1.93
2019-05-03T16:47:04.892Z,2.00
2019-05-03T16:49:06.988Z,1.87
2019-05-03T16:51:09.783Z,2.90
2019-05-03T16:53:14.776Z,2.70
2019-05-03T16:55:16.389Z,2.40
2019-05-03T16:57:18.429Z,1.30
2019-05-03T16:59:21.776Z,1.50
2019-05-03T17:01:24.521Z,3.80
2019-05-03T17:03:38.198Z,1.13
2019-05-03T17:05:46.836Z,4.05
2019-05-03T17:07:49.398Z,2.03
2019-05-03T17:09:52.887Z,1.60
2019-05-03T17:12:11.088Z,2.10
2019-05-03T17:14:15.502Z,1.63
2019-05-03T17:16:16.270Z,1.43
2019-05-03T17:18:18.872Z,2.47
2019-05-03T17:20:21.415Z,2.00
2019-05-03T17:22:25.215Z,1.63
2019-05-03T17:24:26.517Z,2.53
2019-05-03T17:26:30.232Z,2.10
2019-05-03T17:28:32.812Z,1.43
2019-05-03T17:30:37.426Z,3.80
2019-05-03T17:32:38.007Z,1.47
2019-05-03T17:34:40.646Z,2.23
2019-05-03T17:36:44.951Z,4.20
2019-05-03T17:38:46.004Z,5.43
2019-05-03T17:40:49.468Z,1.07
2019-05-03T17:42:54.730Z,4.53
2019-05-03T17:44:57.386Z,1.20
2019-05-03T17:46:59.944Z,1.13
2019-05-03T17:49:02.559Z,1.57
2019-05-03T17:51:05.282Z,1.30
2019-05-03T17:53:14.738Z,1.30
2019-05-03T17:55:31.231Z,1.10
2019-05-03T17:57:37.299Z,2.00
2019-05-03T17:59:49.771Z,1.47
2019-05-03T18:02:10.789Z,1.93
2019-05-03T18:04:24.855Z,1.10
2019-05-03T18:06:27.907Z,0.93
2019-05-03T18:08:31.111Z,2.28
2019-05-03T18:10:33.756Z,1.17
2019-05-03T18:12:36.402Z,1.90
2019-05-03T18:14:39.007Z,2.00
2019-05-03T18:16:44.284Z,4.43
2019-05-03T18:18:46.379Z,4.37
2019-05-03T18:20:48.971Z,2.60
2019-05-03T18:22:54.495Z,0.70
2019-05-03T18:24:55.833Z,3.60
2019-05-03T18:26:58.407Z,2.90
2019-05-03T18:29:01.015Z,1.77
2019-05-03T18:31:05.338Z,1.50
2019-05-03T18:33:07.123Z,2.03
2019-05-03T18:35:09.776Z,2.03
2019-05-03T18:37:15.096Z,1.20
2019-05-03T18:39:15.638Z,1.10
2019-05-03T18:41:19.017Z,2.33
2019-05-03T18:43:25.707Z,2.80
2019-05-03T18:45:34.982Z,1.67
2019-05-03T18:47:37.563Z,11.40
2019-05-03T18:49:40.575Z,2.53
2019-05-03T18:51:44.707Z,1.80
2019-05-03T18:53:46.826Z,2.20
2019-05-03T18:55:49.527Z,9.13
2019-05-03T18:57:54.680Z,1.13
2019-05-03T18:59:55.652Z,3.70
2019-05-03T19:01:58.371Z,2.30
2019-05-03T19:04:05.203Z,2.87
2019-05-03T19:06:09.382Z,3.07
2019-05-03T19:08:15.645Z,1.57
2019-05-03T19:10:20.184Z,4.37
2019-05-03T19:12:26.407Z,2.00
2019-05-03T19:14:27.861Z,3.67
2019-05-03T19:16:35.024Z,4.40
2019-05-03T19:18:35.750Z,2.93
2019-05-03T19:20:38.298Z,2.47
2019-05-03T19:22:40.847Z,1.43
2019-05-03T19:24:44.482Z,2.10
2019-05-03T19:26:46.000Z,4.00
2019-05-03T19:28:48.825Z,1.53
2019-05-03T19:30:51.397Z,2.07
2019-05-03T19:32:55.611Z,2.00
2019-05-03T19:34:58.363Z,4.87
2019-05-03T19:37:01.983Z,3.58
2019-05-03T19:39:05.038Z,1.37
2019-05-03T19:41:07.478Z,3.50
2019-05-03T19:43:10.082Z,6.20
2019-05-03T19:45:15.066Z,3.33
2019-05-03T19:47:15.790Z,4.10
2019-05-03T19:49:18.114Z,4.10
2019-05-03T19:51:20.920Z,2.03
2019-05-03T19:53:38.445Z,1.37
2019-05-03T19:55:41.382Z,3.43
2019-05-03T19:57:44.960Z,2.87
2019-05-03T19:59:48.113Z,2.10
2019-05-03T20:02:05.639Z,1.20
2019-05-03T20:04:18.878Z,1.47
2019-05-03T20:06:25.246Z,2.30
2019-05-03T20:08:29.329Z,1.33
2019-05-03T20:10:32.414Z,1.70
2019-05-03T20:12:35.381Z,2.03
2019-05-03T20:14:37.799Z,3.33
2019-05-03T20:16:41.232Z,1.27
2019-05-03T20:18:45.412Z,2.13
2019-05-03T20:20:47.324Z,2.63
2019-05-03T20:22:49.966Z,2.20
2019-05-03T20:24:52.784Z,3.00
2019-05-03T20:26:56.893Z,2.07
2019-05-03T20:28:59.534Z,1.30
2019-05-03T20:31:02.086Z,1.60
2019-05-03T20:33:04.652Z,8.33
2019-05-03T20:35:16.196Z,1.80
2019-05-03T20:37:10.518Z,2.70
2019-05-03T20:39:14.846Z,4.40
2019-05-03T20:41:15.768Z,8.40
2019-05-03T20:43:19.121Z,1.63
2019-05-03T20:45:39.409Z,2.63
2019-05-03T20:47:42.033Z,2.53
2019-05-03T20:49:45.139Z,3.63
2019-05-03T20:51:51.027Z,4.00
2019-05-03T20:53:50.558Z,3.07
2019-05-03T20:55:54.562Z,8.00
2019-05-03T20:57:56.451Z,5.50
2019-05-03T20:59:58.999Z,3.77
2019-05-03T21:02:01.562Z,2.90
2019-05-03T21:04:04.826Z,2.87
2019-05-03T21:06:06.751Z,2.10
2019-05-03T21:08:09.322Z,2.03
2019-05-03T21:10:12.099Z,4.97
2019-05-03T21:12:14.928Z,2.77
2019-05-03T21:14:17.198Z,3.00
2019-05-03T21:16:22.774Z,6.33
2019-05-03T21:18:36.150Z,3.23
2019-05-03T21:20:48.607Z,3.80
2019-05-03T21:22:51.174Z,1.93
2019-05-03T21:25:11.450Z,1.67
2019-05-03T21:27:14.065Z,2.20
2019-05-03T21:29:16.609Z,5.20
2019-05-03T21:31:20.122Z,3.97
2019-05-03T21:33:22.678Z,3.37
2019-05-03T21:35:38.302Z,5.63
2019-05-03T21:37:28.870Z,2.70
2019-05-03T21:39:31.423Z,4.23
2019-05-03T21:41:35.342Z,2.77
2019-05-03T21:43:36.953Z,3.90
2019-05-03T21:45:40.531Z,3.80
2019-05-03T21:47:46.471Z,8.80
2019-05-03T21:49:49.035Z,5.27
2019-05-03T21:51:53.591Z,5.13
2019-05-03T21:53:54.162Z,1.30
2019-05-03T21:55:56.775Z,2.70
2019-05-03T21:57:59.299Z,2.67
2019-05-03T22:00:01.850Z,2.47
2019-05-03T22:02:05.132Z,7.33
2019-05-03T22:04:07.266Z,4.53
2019-05-03T22:06:10.130Z,2.20
2019-05-03T22:08:12.695Z,3.27
2019-05-03T22:10:15.239Z,2.67
2019-05-03T22:12:18.853Z,3.47
2019-05-03T22:14:24.502Z,1.35
2019-05-03T22:16:27.751Z,1.97
2019-05-03T22:18:31.063Z,1.77
2019-05-03T22:20:45.461Z,3.90
2019-05-03T22:22:50.536Z,1.23
2019-05-03T22:24:55.329Z,4.90
2019-05-03T22:27:00.429Z,2.03
2019-05-03T22:29:03.006Z,10.03
2019-05-03T22:31:06.839Z,4.93
2019-05-03T22:33:08.158Z,4.33
2019-05-03T22:35:10.704Z,1.90
2019-05-03T22:37:14.321Z,3.70
2019-05-03T22:39:16.015Z,2.60
2019-05-03T22:41:18.554Z,3.10
2019-05-03T22:43:21.105Z,3.30
2019-05-03T22:45:23.699Z,1.93
2019-05-03T22:47:26.266Z,3.00
2019-05-03T22:49:28.942Z,2.60
2019-05-03T22:51:34.479Z,5.12
2019-05-03T22:53:35.023Z,3.37
2019-05-03T22:55:37.654Z,2.90
2019-05-03T22:57:40.526Z,5.10
2019-05-03T22:59:44.833Z,6.30
2019-05-03T23:01:45.996Z,8.23
2019-05-03T23:03:48.386Z,8.93
2019-05-03T23:05:50.975Z,5.27
2019-05-03T23:07:55.223Z,4.50
2019-05-03T23:09:56.218Z,2.20
2019-05-03T23:11:58.894Z,2.23
2019-05-03T23:14:01.458Z,3.60
2019-05-03T23:16:05.170Z,7.30
2019-05-03T23:18:06.571Z,2.03
2019-05-03T23:20:25.465Z,11.00
2019-05-03T23:22:28.212Z,2.70
2019-05-03T23:24:30.814Z,3.87
2019-05-03T23:26:34.861Z,4.53
2019-05-03T23:28:36.882Z,2.00
2019-05-03T23:30:39.453Z,7.47
2019-05-03T23:32:42.208Z,2.40
2019-05-03T23:34:46.386Z,1.63
2019-05-03T23:36:48.095Z,3.97
2019-05-03T23:38:50.675Z,4.17
2019-05-03T23:40:54.917Z,5.73
2019-05-03T23:42:56.054Z,5.83
2019-05-03T23:44:58.598Z,2.13
2019-05-03T23:47:16.710Z,1.50
2019-05-03T23:49:19.844Z,6.53
2019-05-03T23:51:27.983Z,4.57
2019-05-03T23:53:32.079Z,5.50
2019-05-03T23:55:38.146Z,3.10
2019-05-03T23:57:41.496Z,3.83
2019-05-03T23:59:44.949Z,8.50
